sensor_id;sensor_type;location;lat;lon;timestamp;P1;durP1;ratioP1;P2;durP2;ratioP2
43893;SDS011;29556;50.846;4.442;2022-12-18T00:00:58;4.88;;;4.30;;
43893;SDS011;29556;50.846;4.442;2022-12-18T00:03:23;18.88;;;5.18;;
43893;SDS011;29556;50.846;4.442;2022-12-18T00:05:50;16.30;;;4.70;;
43893;SDS011;29556;50.846;4.442;2022-12-18T00:08:17;12.02;;;4.70;;
43893;SDS011;29556;50.846;4.442;2022-12-18T00:10:45;10.55;;;4.43;;
43893;SDS011;29556;50.846;4.442;2022-12-18T00:13:11;10.68;;;4.70;;
43893;SDS011;29556;50.846;4.442;2022-12-18T00:15:38;20.60;;;4.68;;
43893;SDS011;29556;50.846;4.442;2022-12-18T00:18:04;6.97;;;2.53;;
43893;SDS011;29556;50.846;4.442;2022-12-18T00:20:31;11.25;;;5.43;;
43893;SDS011;29556;50.846;4.442;2022-12-18T00:23:00;10.55;;;4.05;;
43893;SDS011;29556;50.846;4.442;2022-12-18T00:25:25;16.40;;;4.47;;
43893;SDS011;29556;50.846;4.442;2022-12-18T00:27:51;15.30;;;3.55;;
43893;SDS011;29556;50.846;4.442;2022-12-18T00:30:17;5.80;;;3.83;;
43893;SDS011;29556;50.846;4.442;2022-12-18T00:32:43;9.05;;;3.50;;
43893;SDS011;29556;50.846;4.442;2022-12-18T00:35:09;11.88;;;4.28;;
43893;SDS011;29556;50.846;4.442;2022-12-18T00:37:34;16.48;;;4.88;;
43893;SDS011;29556;50.846;4.442;2022-12-18T00:40:00;5.55;;;3.22;;
43893;SDS011;29556;50.846;4.442;2022-12-18T00:42:26;11.77;;;4.22;;
43893;SDS011;29556;50.846;4.442;2022-12-18T00:45:11;10.68;;;3.22;;
43893;SDS011;29556;50.846;4.442;2022-12-18T00:47:37;13.48;;;4.70;;
43893;SDS011;29556;50.846;4.442;2022-12-18T00:50:03;10.88;;;3.10;;
43893;SDS011;29556;50.846;4.442;2022-12-18T00:52:29;7.93;;;3.28;;
43893;SDS011;29556;50.846;4.442;2022-12-18T00:54:54;7.40;;;3.67;;
43893;SDS011;29556;50.846;4.442;2022-12-18T00:57:21;8.45;;;2.83;;
43893;SDS011;29556;50.846;4.442;2022-12-18T00:59:46;9.32;;;4.28;;
43893;SDS011;29556;50.846;4.442;2022-12-18T01:02:12;3.55;;;2.40;;
43893;SDS011;29556;50.846;4.442;2022-12-18T01:04:38;18.75;;;3.85;;
43893;SDS011;29556;50.846;4.442;2022-12-18T01:07:03;6.13;;;2.95;;
43893;SDS011;29556;50.846;4.442;2022-12-18T01:09:29;5.15;;;3.10;;
43893;SDS011;29556;50.846;4.442;2022-12-18T01:11:54;7.47;;;4.45;;
43893;SDS011;29556;50.846;4.442;2022-12-18T01:14:20;6.35;;;2.58;;
43893;SDS011;29556;50.846;4.442;2022-12-18T01:16:46;7.97;;;3.20;;
43893;SDS011;29556;50.846;4.442;2022-12-18T01:19:11;5.10;;;3.33;;
43893;SDS011;29556;50.846;4.442;2022-12-18T01:21:37;16.83;;;3.22;;
43893;SDS011;29556;50.846;4.442;2022-12-18T01:24:03;13.45;;;3.15;;
43893;SDS011;29556;50.846;4.442;2022-12-18T01:26:29;4.07;;;2.75;;
43893;SDS011;29556;50.846;4.442;2022-12-18T01:28:55;11.18;;;3.85;;
43893;SDS011;29556;50.846;4.442;2022-12-18T01:31:29;11.93;;;3.08;;
43893;SDS011;29556;50.846;4.442;2022-12-18T01:33:59;4.15;;;1.58;;
43893;SDS011;29556;50.846;4.442;2022-12-18T01:36:27;2.20;;;2.08;;
43893;SDS011;29556;50.846;4.442;2022-12-18T01:38:54;9.90;;;2.25;;
43893;SDS011;29556;50.846;4.442;2022-12-18T01:41:23;6.65;;;4.15;;
43893;SDS011;29556;50.846;4.442;2022-12-18T01:43:52;1.85;;;1.65;;
43893;SDS011;29556;50.846;4.442;2022-12-18T01:46:20;8.52;;;1.88;;
43893;SDS011;29556;50.846;4.442;2022-12-18T01:48:48;1.52;;;1.38;;
43893;SDS011;29556;50.846;4.442;2022-12-18T01:51:25;2.80;;;2.05;;
43893;SDS011;29556;50.846;4.442;2022-12-18T01:53:52;2.50;;;1.45;;
43893;SDS011;29556;50.846;4.442;2022-12-18T01:56:19;3.95;;;1.80;;
43893;SDS011;29556;50.846;4.442;2022-12-18T01:59:00;7.10;;;2.28;;
43893;SDS011;29556;50.846;4.442;2022-12-18T02:01:29;6.60;;;2.78;;
43893;SDS011;29556;50.846;4.442;2022-12-18T02:03:56;4.63;;;2.20;;
43893;SDS011;29556;50.846;4.442;2022-12-18T02:07:11;2.22;;;1.00;;
43893;SDS011;29556;50.846;4.442;2022-12-18T02:12:23;3.40;;;1.52;;
43893;SDS011;29556;50.846;4.442;2022-12-18T02:20:18;4.95;;;1.85;;
43893;SDS011;29556;50.846;4.442;2022-12-18T02:22:59;6.43;;;2.45;;
43893;SDS011;29556;50.846;4.442;2022-12-18T02:28:20;4.78;;;2.80;;
43893;SDS011;29556;50.846;4.442;2022-12-18T02:30:50;6.13;;;2.37;;
43893;SDS011;29556;50.846;4.442;2022-12-18T02:33:21;5.22;;;1.98;;
43893;SDS011;29556;50.846;4.442;2022-12-18T02:35:49;1.40;;;1.30;;
43893;SDS011;29556;50.846;4.442;2022-12-18T02:38:16;4.80;;;2.25;;
43893;SDS011;29556;50.846;4.442;2022-12-18T02:40:43;3.40;;;1.20;;
43893;SDS011;29556;50.846;4.442;2022-12-18T02:43:10;3.75;;;1.42;;
43893;SDS011;29556;50.846;4.442;2022-12-18T02:45:48;5.65;;;2.55;;
43893;SDS011;29556;50.846;4.442;2022-12-18T02:48:26;6.80;;;2.10;;
43893;SDS011;29556;50.846;4.442;2022-12-18T02:51:11;8.55;;;2.45;;
43893;SDS011;29556;50.846;4.442;2022-12-18T02:53:41;6.97;;;2.40;;
43893;SDS011;29556;50.846;4.442;2022-12-18T02:56:14;8.45;;;2.00;;
43893;SDS011;29556;50.846;4.442;2022-12-18T02:58:47;6.80;;;1.33;;
43893;SDS011;29556;50.846;4.442;2022-12-18T03:01:19;3.78;;;2.78;;
43893;SDS011;29556;50.846;4.442;2022-12-18T03:04:01;2.50;;;1.67;;
43893;SDS011;29556;50.846;4.442;2022-12-18T03:06:40;3.00;;;2.25;;
43893;SDS011;29556;50.846;4.442;2022-12-18T03:09:13;3.85;;;2.45;;
43893;SDS011;29556;50.846;4.442;2022-12-18T03:11:47;9.25;;;3.65;;
43893;SDS011;29556;50.846;4.442;2022-12-18T03:14:40;1.92;;;1.67;;
43893;SDS011;29556;50.846;4.442;2022-12-18T03:17:09;6.15;;;2.30;;
43893;SDS011;29556;50.846;4.442;2022-12-18T03:19:38;16.40;;;1.70;;
43893;SDS011;29556;50.846;4.442;2022-12-18T03:22:06;4.05;;;2.42;;
43893;SDS011;29556;50.846;4.442;2022-12-18T03:24:33;2.75;;;1.33;;
43893;SDS011;29556;50.846;4.442;2022-12-18T03:27:05;2.70;;;1.80;;
43893;SDS011;29556;50.846;4.442;2022-12-18T03:32:03;1.67;;;1.58;;
43893;SDS011;29556;50.846;4.442;2022-12-18T03:34:36;1.08;;;1.08;;
43893;SDS011;29556;50.846;4.442;2022-12-18T03:37:05;5.18;;;1.67;;
43893;SDS011;29556;50.846;4.442;2022-12-18T03:39:32;3.90;;;1.33;;
43893;SDS011;29556;50.846;4.442;2022-12-18T03:44:31;4.63;;;1.75;;
43893;SDS011;29556;50.846;4.442;2022-12-18T03:54:49;4.82;;;1.65;;
43893;SDS011;29556;50.846;4.442;2022-12-18T03:57:20;8.65;;;2.63;;
43893;SDS011;29556;50.846;4.442;2022-12-18T03:59:50;1.80;;;1.70;;
43893;SDS011;29556;50.846;4.442;2022-12-18T04:02:20;5.32;;;1.80;;
43893;SDS011;29556;50.846;4.442;2022-12-18T04:04:49;3.13;;;2.40;;
43893;SDS011;29556;50.846;4.442;2022-12-18T04:07:18;3.42;;;1.77;;
43893;SDS011;29556;50.846;4.442;2022-12-18T04:09:46;7.55;;;2.58;;
43893;SDS011;29556;50.846;4.442;2022-12-18T04:12:13;9.07;;;3.72;;
43893;SDS011;29556;50.846;4.442;2022-12-18T04:14:39;1.83;;;1.52;;
43893;SDS011;29556;50.846;4.442;2022-12-18T04:17:05;4.28;;;1.98;;
43893;SDS011;29556;50.846;4.442;2022-12-18T04:19:30;3.30;;;1.90;;
43893;SDS011;29556;50.846;4.442;2022-12-18T04:21:56;3.63;;;2.15;;
43893;SDS011;29556;50.846;4.442;2022-12-18T04:24:22;8.38;;;1.60;;
43893;SDS011;29556;50.846;4.442;2022-12-18T04:26:48;9.98;;;2.25;;
43893;SDS011;29556;50.846;4.442;2022-12-18T04:29:16;5.32;;;2.55;;
43893;SDS011;29556;50.846;4.442;2022-12-18T04:31:41;4.38;;;1.73;;
43893;SDS011;29556;50.846;4.442;2022-12-18T04:34:07;4.38;;;2.63;;
43893;SDS011;29556;50.846;4.442;2022-12-18T04:36:33;1.77;;;1.33;;
43893;SDS011;29556;50.846;4.442;2022-12-18T04:38:58;3.35;;;2.55;;
43893;SDS011;29556;50.846;4.442;2022-12-18T04:41:24;1.08;;;1.02;;
43893;SDS011;29556;50.846;4.442;2022-12-18T04:43:50;1.67;;;1.63;;
43893;SDS011;29556;50.846;4.442;2022-12-18T04:46:15;2.00;;;1.60;;
43893;SDS011;29556;50.846;4.442;2022-12-18T04:48:41;4.00;;;2.35;;
43893;SDS011;29556;50.846;4.442;2022-12-18T04:51:09;3.70;;;1.80;;
43893;SDS011;29556;50.846;4.442;2022-12-18T04:53:35;4.10;;;1.27;;
43893;SDS011;29556;50.846;4.442;2022-12-18T04:56:05;1.17;;;1.10;;
43893;SDS011;29556;50.846;4.442;2022-12-18T04:58:41;1.55;;;1.40;;
43893;SDS011;29556;50.846;4.442;2022-12-18T05:01:08;4.15;;;2.30;;
43893;SDS011;29556;50.846;4.442;2022-12-18T05:03:36;2.72;;;1.73;;
43893;SDS011;29556;50.846;4.442;2022-12-18T05:06:03;6.55;;;2.25;;
43893;SDS011;29556;50.846;4.442;2022-12-18T05:08:30;0.95;;;0.95;;
43893;SDS011;29556;50.846;4.442;2022-12-18T05:10:59;3.38;;;1.48;;
43893;SDS011;29556;50.846;4.442;2022-12-18T05:13:30;1.88;;;0.80;;
43893;SDS011;29556;50.846;4.442;2022-12-18T05:15:56;1.60;;;1.15;;
43893;SDS011;29556;50.846;4.442;2022-12-18T05:18:22;6.78;;;2.33;;
43893;SDS011;29556;50.846;4.442;2022-12-18T05:20:49;4.30;;;2.05;;
43893;SDS011;29556;50.846;4.442;2022-12-18T05:23:15;1.60;;;1.50;;
43893;SDS011;29556;50.846;4.442;2022-12-18T05:25:40;2.80;;;1.63;;
43893;SDS011;29556;50.846;4.442;2022-12-18T05:28:06;5.75;;;2.60;;
43893;SDS011;29556;50.846;4.442;2022-12-18T05:30:32;8.80;;;2.40;;
43893;SDS011;29556;50.846;4.442;2022-12-18T05:32:58;3.20;;;1.98;;
43893;SDS011;29556;50.846;4.442;2022-12-18T05:35:24;1.85;;;0.80;;
43893;SDS011;29556;50.846;4.442;2022-12-18T05:37:49;4.88;;;1.73;;
43893;SDS011;29556;50.846;4.442;2022-12-18T05:40:15;1.63;;;1.52;;
43893;SDS011;29556;50.846;4.442;2022-12-18T05:42:42;1.95;;;1.17;;
43893;SDS011;29556;50.846;4.442;2022-12-18T05:45:07;1.27;;;1.27;;
43893;SDS011;29556;50.846;4.442;2022-12-18T05:47:34;2.42;;;1.58;;
43893;SDS011;29556;50.846;4.442;2022-12-18T05:50:00;1.77;;;1.67;;
43893;SDS011;29556;50.846;4.442;2022-12-18T05:52:25;0.55;;;0.55;;
43893;SDS011;29556;50.846;4.442;2022-12-18T05:54:51;1.92;;;1.75;;
43893;SDS011;29556;50.846;4.442;2022-12-18T05:57:18;3.47;;;2.22;;
43893;SDS011;29556;50.846;4.442;2022-12-18T05:59:48;5.28;;;2.25;;
43893;SDS011;29556;50.846;4.442;2022-12-18T06:02:17;1.88;;;1.75;;
43893;SDS011;29556;50.846;4.442;2022-12-18T06:04:42;4.28;;;0.85;;
43893;SDS011;29556;50.846;4.442;2022-12-18T06:07:08;3.00;;;1.50;;
43893;SDS011;29556;50.846;4.442;2022-12-18T06:09:33;2.00;;;0.90;;
43893;SDS011;29556;50.846;4.442;2022-12-18T06:11:59;0.88;;;0.85;;
43893;SDS011;29556;50.846;4.442;2022-12-18T06:14:26;1.55;;;1.05;;
43893;SDS011;29556;50.846;4.442;2022-12-18T06:16:51;1.73;;;1.63;;
43893;SDS011;29556;50.846;4.442;2022-12-18T06:19:18;4.55;;;2.15;;
43893;SDS011;29556;50.846;4.442;2022-12-18T06:21:45;1.88;;;1.17;;
43893;SDS011;29556;50.846;4.442;2022-12-18T06:24:10;2.72;;;1.55;;
43893;SDS011;29556;50.846;4.442;2022-12-18T06:26:37;2.53;;;1.60;;
43893;SDS011;29556;50.846;4.442;2022-12-18T06:29:03;7.40;;;1.60;;
43893;SDS011;29556;50.846;4.442;2022-12-18T06:31:29;5.55;;;1.60;;
43893;SDS011;29556;50.846;4.442;2022-12-18T06:33:55;6.47;;;1.58;;
43893;SDS011;29556;50.846;4.442;2022-12-18T06:36:22;5.90;;;1.77;;
43893;SDS011;29556;50.846;4.442;2022-12-18T06:38:48;1.70;;;1.23;;
43893;SDS011;29556;50.846;4.442;2022-12-18T06:41:15;5.80;;;1.55;;
43893;SDS011;29556;50.846;4.442;2022-12-18T06:43:42;4.47;;;2.60;;
43893;SDS011;29556;50.846;4.442;2022-12-18T06:46:08;2.17;;;1.52;;
43893;SDS011;29556;50.846;4.442;2022-12-18T06:48:34;0.47;;;0.47;;
43893;SDS011;29556;50.846;4.442;2022-12-18T06:51:00;1.75;;;0.95;;
43893;SDS011;29556;50.846;4.442;2022-12-18T06:53:26;6.07;;;2.13;;
43893;SDS011;29556;50.846;4.442;2022-12-18T06:55:52;5.78;;;2.03;;
43893;SDS011;29556;50.846;4.442;2022-12-18T06:58:24;1.42;;;0.98;;
43893;SDS011;29556;50.846;4.442;2022-12-18T07:00:50;3.28;;;1.65;;
43893;SDS011;29556;50.846;4.442;2022-12-18T07:03:16;0.55;;;0.55;;
43893;SDS011;29556;50.846;4.442;2022-12-18T07:05:42;1.33;;;1.25;;
43893;SDS011;29556;50.846;4.442;2022-12-18T07:08:10;1.85;;;1.05;;
43893;SDS011;29556;50.846;4.442;2022-12-18T07:10:42;2.80;;;1.83;;
43893;SDS011;29556;50.846;4.442;2022-12-18T07:13:08;5.55;;;1.00;;
43893;SDS011;29556;50.846;4.442;2022-12-18T07:15:34;3.58;;;2.30;;
43893;SDS011;29556;50.846;4.442;2022-12-18T07:17:59;7.63;;;1.27;;
43893;SDS011;29556;50.846;4.442;2022-12-18T07:20:26;9.80;;;1.67;;
43893;SDS011;29556;50.846;4.442;2022-12-18T07:22:52;4.70;;;0.82;;
43893;SDS011;29556;50.846;4.442;2022-12-18T07:25:17;2.22;;;1.45;;
43893;SDS011;29556;50.846;4.442;2022-12-18T07:27:43;3.63;;;1.45;;
43893;SDS011;29556;50.846;4.442;2022-12-18T07:30:11;8.60;;;0.70;;
43893;SDS011;29556;50.846;4.442;2022-12-18T07:32:39;4.78;;;1.33;;
43893;SDS011;29556;50.846;4.442;2022-12-18T07:35:04;2.40;;;0.98;;
43893;SDS011;29556;50.846;4.442;2022-12-18T07:37:30;2.92;;;1.88;;
43893;SDS011;29556;50.846;4.442;2022-12-18T07:39:56;8.50;;;2.05;;
43893;SDS011;29556;50.846;4.442;2022-12-18T07:42:21;0.98;;;0.65;;
43893;SDS011;29556;50.846;4.442;2022-12-18T07:44:59;5.68;;;1.08;;
43893;SDS011;29556;50.846;4.442;2022-12-18T07:47:26;2.17;;;1.27;;
43893;SDS011;29556;50.846;4.442;2022-12-18T07:49:52;0.22;;;0.22;;
43893;SDS011;29556;50.846;4.442;2022-12-18T07:52:18;3.30;;;0.50;;
43893;SDS011;29556;50.846;4.442;2022-12-18T07:54:44;0.73;;;0.73;;
43893;SDS011;29556;50.846;4.442;2022-12-18T07:57:10;6.78;;;1.67;;
43893;SDS011;29556;50.846;4.442;2022-12-18T07:59:36;1.00;;;0.77;;
43893;SDS011;29556;50.846;4.442;2022-12-18T08:02:02;1.13;;;0.93;;
43893;SDS011;29556;50.846;4.442;2022-12-18T08:04:28;14.35;;;1.90;;
43893;SDS011;29556;50.846;4.442;2022-12-18T08:06:53;0.63;;;0.63;;
43893;SDS011;29556;50.846;4.442;2022-12-18T08:09:19;2.28;;;0.85;;
43893;SDS011;29556;50.846;4.442;2022-12-18T08:11:45;3.45;;;0.88;;
43893;SDS011;29556;50.846;4.442;2022-12-18T08:14:11;1.92;;;0.80;;
43893;SDS011;29556;50.846;4.442;2022-12-18T08:16:36;2.67;;;1.10;;
43893;SDS011;29556;50.846;4.442;2022-12-18T08:19:02;1.33;;;1.23;;
43893;SDS011;29556;50.846;4.442;2022-12-18T08:21:29;2.83;;;1.52;;
43893;SDS011;29556;50.846;4.442;2022-12-18T08:23:57;2.95;;;1.25;;
43893;SDS011;29556;50.846;4.442;2022-12-18T08:26:25;0.63;;;0.63;;
43893;SDS011;29556;50.846;4.442;2022-12-18T08:28:54;1.33;;;0.80;;
43893;SDS011;29556;50.846;4.442;2022-12-18T08:31:21;1.15;;;1.00;;
43893;SDS011;29556;50.846;4.442;2022-12-18T08:33:51;1.85;;;1.48;;
43893;SDS011;29556;50.846;4.442;2022-12-18T08:36:18;2.10;;;1.02;;
43893;SDS011;29556;50.846;4.442;2022-12-18T08:38:44;1.75;;;1.25;;
43893;SDS011;29556;50.846;4.442;2022-12-18T08:41:11;1.60;;;0.73;;
43893;SDS011;29556;50.846;4.442;2022-12-18T08:43:38;4.38;;;0.90;;
43893;SDS011;29556;50.846;4.442;2022-12-18T08:46:23;3.70;;;0.73;;
43893;SDS011;29556;50.846;4.442;2022-12-18T08:54:56;1.20;;;0.60;;
43893;SDS011;29556;50.846;4.442;2022-12-18T08:57:21;5.15;;;1.90;;
43893;SDS011;29556;50.846;4.442;2022-12-18T08:59:47;2.58;;;0.82;;
43893;SDS011;29556;50.846;4.442;2022-12-18T09:02:13;1.70;;;0.95;;
43893;SDS011;29556;50.846;4.442;2022-12-18T09:04:38;1.42;;;0.85;;
43893;SDS011;29556;50.846;4.442;2022-12-18T09:07:04;5.40;;;0.88;;
43893;SDS011;29556;50.846;4.442;2022-12-18T09:09:30;1.13;;;1.08;;
43893;SDS011;29556;50.846;4.442;2022-12-18T09:11:56;4.10;;;1.15;;
43893;SDS011;29556;50.846;4.442;2022-12-18T09:14:21;2.42;;;1.27;;
43893;SDS011;29556;50.846;4.442;2022-12-18T09:16:47;3.65;;;1.48;;
43893;SDS011;29556;50.846;4.442;2022-12-18T09:19:13;1.50;;;1.33;;
43893;SDS011;29556;50.846;4.442;2022-12-18T09:21:38;1.90;;;1.30;;
43893;SDS011;29556;50.846;4.442;2022-12-18T09:24:04;1.38;;;1.15;;
43893;SDS011;29556;50.846;4.442;2022-12-18T09:26:31;2.25;;;1.33;;
43893;SDS011;29556;50.846;4.442;2022-12-18T09:28:57;0.93;;;0.93;;
43893;SDS011;29556;50.846;4.442;2022-12-18T09:31:23;6.03;;;1.80;;
43893;SDS011;29556;50.846;4.442;2022-12-18T09:33:49;1.35;;;1.25;;
43893;SDS011;29556;50.846;4.442;2022-12-18T09:36:16;5.47;;;1.38;;
43893;SDS011;29556;50.846;4.442;2022-12-18T09:38:42;0.93;;;0.80;;
43893;SDS011;29556;50.846;4.442;2022-12-18T09:43:54;3.35;;;2.15;;
43893;SDS011;29556;50.846;4.442;2022-12-18T09:46:34;2.17;;;0.63;;
43893;SDS011;29556;50.846;4.442;2022-12-18T09:49:06;4.30;;;1.55;;
43893;SDS011;29556;50.846;4.442;2022-12-18T09:54:18;4.57;;;1.50;;
43893;SDS011;29556;50.846;4.442;2022-12-18T09:56:49;1.60;;;1.50;;
43893;SDS011;29556;50.846;4.442;2022-12-18T09:59:24;1.50;;;1.25;;
43893;SDS011;29556;50.846;4.442;2022-12-18T10:01:59;3.60;;;1.33;;
43893;SDS011;29556;50.846;4.442;2022-12-18T10:04:25;2.30;;;1.20;;
43893;SDS011;29556;50.846;4.442;2022-12-18T10:07:01;6.00;;;0.87;;
43893;SDS011;29556;50.846;4.442;2022-12-18T10:09:39;2.42;;;1.50;;
43893;SDS011;29556;50.846;4.442;2022-12-18T10:12:25;3.92;;;1.58;;
43893;SDS011;29556;50.846;4.442;2022-12-18T10:15:18;4.43;;;1.98;;
43893;SDS011;29556;50.846;4.442;2022-12-18T10:18:05;5.22;;;1.65;;
43893;SDS011;29556;50.846;4.442;2022-12-18T10:20:45;3.17;;;1.50;;
43893;SDS011;29556;50.846;4.442;2022-12-18T10:23:29;3.30;;;1.52;;
43893;SDS011;29556;50.846;4.442;2022-12-18T10:26:05;4.22;;;2.40;;
43893;SDS011;29556;50.846;4.442;2022-12-18T10:28:34;3.70;;;1.23;;
43893;SDS011;29556;50.846;4.442;2022-12-18T10:31:02;5.00;;;1.73;;
43893;SDS011;29556;50.846;4.442;2022-12-18T10:33:31;1.52;;;1.30;;
43893;SDS011;29556;50.846;4.442;2022-12-18T10:35:58;1.73;;;1.05;;
43893;SDS011;29556;50.846;4.442;2022-12-18T10:38:28;11.10;;;2.20;;
43893;SDS011;29556;50.846;4.442;2022-12-18T10:41:01;5.05;;;2.55;;
43893;SDS011;29556;50.846;4.442;2022-12-18T10:46:49;4.28;;;2.45;;
43893;SDS011;29556;50.846;4.442;2022-12-18T10:49:19;7.13;;;1.83;;
43893;SDS011;29556;50.846;4.442;2022-12-18T10:51:50;6.20;;;2.00;;
43893;SDS011;29556;50.846;4.442;2022-12-18T10:54:37;5.72;;;2.63;;
43893;SDS011;29556;50.846;4.442;2022-12-18T10:57:37;2.42;;;2.03;;
43893;SDS011;29556;50.846;4.442;2022-12-18T10:59:59;7.78;;;2.13;;
43893;SDS011;29556;50.846;4.442;2022-12-18T11:02:45;8.07;;;2.28;;
43893;SDS011;29556;50.846;4.442;2022-12-18T11:05:27;6.47;;;1.77;;
43893;SDS011;29556;50.846;4.442;2022-12-18T11:07:54;4.22;;;1.60;;
43893;SDS011;29556;50.846;4.442;2022-12-18T11:10:22;4.82;;;1.08;;
43893;SDS011;29556;50.846;4.442;2022-12-18T11:13:11;7.40;;;1.98;;
43893;SDS011;29556;50.846;4.442;2022-12-18T11:15:42;9.23;;;2.00;;
43893;SDS011;29556;50.846;4.442;2022-12-18T11:18:15;2.05;;;1.10;;
43893;SDS011;29556;50.846;4.442;2022-12-18T11:21:06;2.30;;;1.77;;
43893;SDS011;29556;50.846;4.442;2022-12-18T11:23:34;9.40;;;2.55;;
43893;SDS011;29556;50.846;4.442;2022-12-18T11:26:03;4.80;;;2.05;;
43893;SDS011;29556;50.846;4.442;2022-12-18T11:28:40;7.28;;;3.38;;
43893;SDS011;29556;50.846;4.442;2022-12-18T11:31:24;8.27;;;2.20;;
43893;SDS011;29556;50.846;4.442;2022-12-18T11:33:54;6.63;;;3.10;;
43893;SDS011;29556;50.846;4.442;2022-12-18T11:36:21;5.00;;;1.58;;
43893;SDS011;29556;50.846;4.442;2022-12-18T11:38:48;4.35;;;2.17;;
43893;SDS011;29556;50.846;4.442;2022-12-18T11:41:32;4.20;;;2.17;;
43893;SDS011;29556;50.846;4.442;2022-12-18T11:44:32;2.88;;;1.92;;
43893;SDS011;29556;50.846;4.442;2022-12-18T11:49:43;3.67;;;1.23;;
43893;SDS011;29556;50.846;4.442;2022-12-18T11:52:16;3.47;;;2.05;;
43893;SDS011;29556;50.846;4.442;2022-12-18T11:54:53;3.58;;;1.48;;
43893;SDS011;29556;50.846;4.442;2022-12-18T11:57:47;8.18;;;2.20;;
43893;SDS011;29556;50.846;4.442;2022-12-18T12:00:28;7.10;;;2.47;;
43893;SDS011;29556;50.846;4.442;2022-12-18T12:08:22;6.13;;;1.60;;
43893;SDS011;29556;50.846;4.442;2022-12-18T12:14:28;6.72;;;2.55;;
43893;SDS011;29556;50.846;4.442;2022-12-18T12:17:14;6.80;;;3.40;;
43893;SDS011;29556;50.846;4.442;2022-12-18T12:20:05;9.32;;;2.40;;
43893;SDS011;29556;50.846;4.442;2022-12-18T12:25:30;9.55;;;2.78;;
43893;SDS011;29556;50.846;4.442;2022-12-18T12:31:14;4.30;;;2.03;;
43893;SDS011;29556;50.846;4.442;2022-12-18T12:37:03;4.10;;;1.35;;
43893;SDS011;29556;50.846;4.442;2022-12-18T12:39:35;8.73;;;2.17;;
43893;SDS011;29556;50.846;4.442;2022-12-18T12:42:05;5.10;;;2.23;;
43893;SDS011;29556;50.846;4.442;2022-12-18T12:44:59;6.55;;;2.20;;
43893;SDS011;29556;50.846;4.442;2022-12-18T12:47:31;11.02;;;3.35;;
43893;SDS011;29556;50.846;4.442;2022-12-18T12:50:02;19.40;;;2.55;;
43893;SDS011;29556;50.846;4.442;2022-12-18T12:52:31;5.75;;;2.20;;
43893;SDS011;29556;50.846;4.442;2022-12-18T12:55:00;19.38;;;2.45;;
43893;SDS011;29556;50.846;4.442;2022-12-18T12:57:40;8.18;;;2.42;;
43893;SDS011;29556;50.846;4.442;2022-12-18T13:00:14;7.05;;;2.33;;
43893;SDS011;29556;50.846;4.442;2022-12-18T13:07:59;3.47;;;1.65;;
43893;SDS011;29556;50.846;4.442;2022-12-18T13:10:36;8.48;;;2.83;;
43893;SDS011;29556;50.846;4.442;2022-12-18T13:13:05;5.07;;;2.10;;
43893;SDS011;29556;50.846;4.442;2022-12-18T13:18:19;2.88;;;1.63;;
43893;SDS011;29556;50.846;4.442;2022-12-18T13:20:51;8.75;;;1.98;;
43893;SDS011;29556;50.846;4.442;2022-12-18T13:23:36;18.65;;;4.40;;
43893;SDS011;29556;50.846;4.442;2022-12-18T13:36:41;11.20;;;2.60;;
43893;SDS011;29556;50.846;4.442;2022-12-18T13:41:42;5.65;;;1.65;;
43893;SDS011;29556;50.846;4.442;2022-12-18T13:46:45;5.53;;;1.85;;
43893;SDS011;29556;50.846;4.442;2022-12-18T13:51:47;5.28;;;2.05;;
43893;SDS011;29556;50.846;4.442;2022-12-18T13:54:19;9.85;;;2.15;;
43893;SDS011;29556;50.846;4.442;2022-12-18T13:56:54;8.88;;;2.08;;
43893;SDS011;29556;50.846;4.442;2022-12-18T14:01:58;10.00;;;2.28;;
43893;SDS011;29556;50.846;4.442;2022-12-18T14:04:45;6.00;;;1.92;;
43893;SDS011;29556;50.846;4.442;2022-12-18T14:07:12;7.75;;;2.92;;
43893;SDS011;29556;50.846;4.442;2022-12-18T14:09:41;5.13;;;1.48;;
43893;SDS011;29556;50.846;4.442;2022-12-18T14:12:21;9.83;;;2.53;;
43893;SDS011;29556;50.846;4.442;2022-12-18T14:15:32;8.20;;;2.78;;
43893;SDS011;29556;50.846;4.442;2022-12-18T14:17:59;7.82;;;2.75;;
43893;SDS011;29556;50.846;4.442;2022-12-18T14:20:29;6.53;;;2.80;;
43893;SDS011;29556;50.846;4.442;2022-12-18T14:22:57;4.88;;;2.25;;
43893;SDS011;29556;50.846;4.442;2022-12-18T14:25:24;3.53;;;2.03;;
43893;SDS011;29556;50.846;4.442;2022-12-18T14:33:02;17.10;;;3.25;;
43893;SDS011;29556;50.846;4.442;2022-12-18T14:35:38;3.63;;;2.03;;
43893;SDS011;29556;50.846;4.442;2022-12-18T14:40:42;8.55;;;3.15;;
43893;SDS011;29556;50.846;4.442;2022-12-18T14:43:09;13.13;;;4.80;;
43893;SDS011;29556;50.846;4.442;2022-12-18T14:45:36;10.57;;;3.45;;
43893;SDS011;29556;50.846;4.442;2022-12-18T14:48:06;9.25;;;2.60;;
43893;SDS011;29556;50.846;4.442;2022-12-18T14:50:35;7.35;;;2.75;;
43893;SDS011;29556;50.846;4.442;2022-12-18T14:53:01;6.93;;;2.05;;
43893;SDS011;29556;50.846;4.442;2022-12-18T14:55:27;6.82;;;2.20;;
43893;SDS011;29556;50.846;4.442;2022-12-18T14:57:55;6.78;;;2.58;;
43893;SDS011;29556;50.846;4.442;2022-12-18T15:00:23;15.82;;;3.38;;
43893;SDS011;29556;50.846;4.442;2022-12-18T15:02:55;4.50;;;1.58;;
43893;SDS011;29556;50.846;4.442;2022-12-18T15:05:28;5.35;;;1.98;;
43893;SDS011;29556;50.846;4.442;2022-12-18T15:07:56;9.07;;;3.20;;
43893;SDS011;29556;50.846;4.442;2022-12-18T15:10:29;6.50;;;2.60;;
43893;SDS011;29556;50.846;4.442;2022-12-18T15:20:44;11.95;;;3.30;;
43893;SDS011;29556;50.846;4.442;2022-12-18T15:23:17;5.50;;;2.53;;
43893;SDS011;29556;50.846;4.442;2022-12-18T15:25:58;8.45;;;3.47;;
43893;SDS011;29556;50.846;4.442;2022-12-18T15:33:47;14.23;;;4.03;;
43893;SDS011;29556;50.846;4.442;2022-12-18T15:36:28;8.05;;;2.88;;
43893;SDS011;29556;50.846;4.442;2022-12-18T15:39:01;8.55;;;2.60;;
43893;SDS011;29556;50.846;4.442;2022-12-18T15:41:30;10.85;;;2.88;;
43893;SDS011;29556;50.846;4.442;2022-12-18T15:43:57;7.68;;;2.88;;
43893;SDS011;29556;50.846;4.442;2022-12-18T15:46:23;10.43;;;2.75;;
43893;SDS011;29556;50.846;4.442;2022-12-18T15:48:50;4.07;;;2.45;;
43893;SDS011;29556;50.846;4.442;2022-12-18T15:51:24;5.68;;;1.80;;
43893;SDS011;29556;50.846;4.442;2022-12-18T15:53:54;12.40;;;3.05;;
43893;SDS011;29556;50.846;4.442;2022-12-18T15:56:22;14.05;;;2.75;;
43893;SDS011;29556;50.846;4.442;2022-12-18T15:59:11;14.65;;;3.35;;
43893;SDS011;29556;50.846;4.442;2022-12-18T16:01:41;7.78;;;2.25;;
43893;SDS011;29556;50.846;4.442;2022-12-18T16:04:11;7.93;;;1.80;;
43893;SDS011;29556;50.846;4.442;2022-12-18T16:06:45;7.85;;;2.45;;
43893;SDS011;29556;50.846;4.442;2022-12-18T16:09:11;8.80;;;2.17;;
43893;SDS011;29556;50.846;4.442;2022-12-18T16:11:37;6.38;;;2.60;;
43893;SDS011;29556;50.846;4.442;2022-12-18T16:14:24;13.02;;;2.47;;
43893;SDS011;29556;50.846;4.442;2022-12-18T16:16:55;8.43;;;2.92;;
43893;SDS011;29556;50.846;4.442;2022-12-18T16:19:28;6.47;;;2.22;;
43893;SDS011;29556;50.846;4.442;2022-12-18T16:21:55;9.52;;;2.65;;
43893;SDS011;29556;50.846;4.442;2022-12-18T16:24:25;13.95;;;3.72;;
43893;SDS011;29556;50.846;4.442;2022-12-18T16:29:19;8.60;;;3.00;;
43893;SDS011;29556;50.846;4.442;2022-12-18T16:31:52;8.32;;;3.00;;
43893;SDS011;29556;50.846;4.442;2022-12-18T16:34:30;10.82;;;2.95;;
43893;SDS011;29556;50.846;4.442;2022-12-18T16:37:06;12.90;;;3.28;;
43893;SDS011;29556;50.846;4.442;2022-12-18T16:39:33;4.85;;;1.80;;
43893;SDS011;29556;50.846;4.442;2022-12-18T16:42:00;9.02;;;2.95;;
43893;SDS011;29556;50.846;4.442;2022-12-18T16:44:32;8.02;;;2.67;;
43893;SDS011;29556;50.846;4.442;2022-12-18T16:46:58;11.15;;;2.65;;
43893;SDS011;29556;50.846;4.442;2022-12-18T16:49:26;10.25;;;3.15;;
43893;SDS011;29556;50.846;4.442;2022-12-18T16:51:53;12.50;;;3.45;;
43893;SDS011;29556;50.846;4.442;2022-12-18T16:54:19;12.90;;;3.92;;